sensor_id;sensor_type;location;lat;lon;timestamp;pressure;altitude;pressure_sealevel;temperature;humidity
70254;BME280;57649;42.968;1.608;2022-10-16T00:01:55;97019.66;;;13.60;86.09
70254;BME280;57649;42.968;1.608;2022-10-16T00:04:20;97019.31;;;13.70;85.10
70254;BME280;57649;42.968;1.608;2022-10-16T00:06:46;97008.31;;;13.64;85.94
70254;BME280;57649;42.968;1.608;2022-10-16T00:09:11;97021.13;;;13.62;86.55
70254;BME280;57649;42.968;1.608;2022-10-16T00:11:38;97028.97;;;13.57;87.04
70254;BME280;57649;42.968;1.608;2022-10-16T00:14:10;97026.28;;;13.57;86.78
70254;BME280;57649;42.968;1.608;2022-10-16T00:16:36;97024.34;;;13.51;86.74
70254;BME280;57649;42.968;1.608;2022-10-16T00:19:02;97027.75;;;13.60;85.74
70254;BME280;57649;42.968;1.608;2022-10-16T00:21:29;97016.53;;;13.56;84.87
70254;BME280;57649;42.968;1.608;2022-10-16T00:23:59;97024.84;;;13.61;84.38
70254;BME280;57649;42.968;1.608;2022-10-16T00:26:26;97022.75;;;13.57;84.50
70254;BME280;57649;42.968;1.608;2022-10-16T00:28:52;97026.22;;;13.51;84.51
70254;BME280;57649;42.968;1.608;2022-10-16T00:31:20;97023.34;;;13.52;84.54
70254;BME280;57649;42.968;1.608;2022-10-16T00:33:46;97016.47;;;13.50;84.77
70254;BME280;57649;42.968;1.608;2022-10-16T00:36:15;97017.34;;;13.50;84.60
70254;BME280;57649;42.968;1.608;2022-10-16T00:38:41;97018.50;;;13.41;84.82
70254;BME280;57649;42.968;1.608;2022-10-16T00:41:12;97018.97;;;13.51;84.91
70254;BME280;57649;42.968;1.608;2022-10-16T00:49:03;97021.13;;;13.62;83.58
70254;BME280;57649;42.968;1.608;2022-10-16T00:51:44;97016.78;;;13.61;82.67
70254;BME280;57649;42.968;1.608;2022-10-16T00:54:15;97018.06;;;13.65;82.53
70254;BME280;57649;42.968;1.608;2022-10-16T00:56:42;97009.84;;;13.74;81.35
70254;BME280;57649;42.968;1.608;2022-10-16T00:59:19;97020.19;;;13.77;81.14
70254;BME280;57649;42.968;1.608;2022-10-16T01:01:45;97014.28;;;13.60;81.23
70254;BME280;57649;42.968;1.608;2022-10-16T01:04:11;97011.28;;;13.48;82.40
70254;BME280;57649;42.968;1.608;2022-10-16T01:06:55;97013.59;;;13.51;82.28
70254;BME280;57649;42.968;1.608;2022-10-16T01:12:14;97009.28;;;13.57;81.49
70254;BME280;57649;42.968;1.608;2022-10-16T01:14:48;97011.66;;;13.66;81.16
70254;BME280;57649;42.968;1.608;2022-10-16T01:17:33;97003.38;;;13.68;80.39
70254;BME280;57649;42.968;1.608;2022-10-16T01:22:38;97010.91;;;13.51;81.70
70254;BME280;57649;42.968;1.608;2022-10-16T01:25:09;97007.78;;;13.47;82.08
70254;BME280;57649;42.968;1.608;2022-10-16T01:27:39;97009.03;;;13.45;82.14
70254;BME280;57649;42.968;1.608;2022-10-16T01:30:13;96994.75;;;13.23;82.29
70254;BME280;57649;42.968;1.608;2022-10-16T01:32:56;96992.91;;;13.23;82.46
70254;BME280;57649;42.968;1.608;2022-10-16T01:38:03;97002.56;;;13.18;82.88
70254;BME280;57649;42.968;1.608;2022-10-16T01:40:30;97006.72;;;13.20;82.92
70254;BME280;57649;42.968;1.608;2022-10-16T01:43:12;96998.03;;;13.18;82.65
70254;BME280;57649;42.968;1.608;2022-10-16T01:45:40;97000.25;;;13.15;82.68
70254;BME280;57649;42.968;1.608;2022-10-16T01:48:07;96995.50;;;13.10;82.87
70254;BME280;57649;42.968;1.608;2022-10-16T01:50:38;96996.38;;;13.17;81.68
70254;BME280;57649;42.968;1.608;2022-10-16T01:53:05;96986.00;;;13.14;81.82
70254;BME280;57649;42.968;1.608;2022-10-16T01:55:35;96988.88;;;13.13;81.79
70254;BME280;57649;42.968;1.608;2022-10-16T01:58:05;96990.75;;;13.12;81.58
70254;BME280;57649;42.968;1.608;2022-10-16T02:00:32;96989.69;;;13.13;81.42
70254;BME280;57649;42.968;1.608;2022-10-16T02:02:58;96982.16;;;13.02;82.08
70254;BME280;57649;42.968;1.608;2022-10-16T02:05:45;96982.59;;;12.99;81.87
70254;BME280;57649;42.968;1.608;2022-10-16T02:08:11;96984.13;;;12.86;82.77
70254;BME280;57649;42.968;1.608;2022-10-16T02:10:38;96977.22;;;12.99;81.41
70254;BME280;57649;42.968;1.608;2022-10-16T02:13:09;96976.75;;;12.95;82.50
70254;BME280;57649;42.968;1.608;2022-10-16T02:15:35;96979.38;;;12.88;82.68
70254;BME280;57649;42.968;1.608;2022-10-16T02:18:02;96974.00;;;12.88;82.70
70254;BME280;57649;42.968;1.608;2022-10-16T02:20:32;96981.50;;;12.93;82.85
70254;BME280;57649;42.968;1.608;2022-10-16T02:23:00;96985.00;;;12.94;83.14
70254;BME280;57649;42.968;1.608;2022-10-16T02:28:04;96980.66;;;12.71;83.54
70254;BME280;57649;42.968;1.608;2022-10-16T02:30:54;96980.88;;;12.69;84.33
70254;BME280;57649;42.968;1.608;2022-10-16T02:33:21;96993.06;;;12.72;83.65
70254;BME280;57649;42.968;1.608;2022-10-16T02:35:48;96986.09;;;12.78;83.78
70254;BME280;57649;42.968;1.608;2022-10-16T02:38:16;96973.38;;;12.86;83.17
70254;BME280;57649;42.968;1.608;2022-10-16T02:40:42;96984.94;;;12.87;83.24
70254;BME280;57649;42.968;1.608;2022-10-16T02:43:08;96976.00;;;12.80;82.95
70254;BME280;57649;42.968;1.608;2022-10-16T02:45:35;96979.94;;;12.84;82.89
70254;BME280;57649;42.968;1.608;2022-10-16T02:48:00;96983.94;;;12.88;83.25
70254;BME280;57649;42.968;1.608;2022-10-16T02:50:26;96970.81;;;12.78;83.12
70254;BME280;57649;42.968;1.608;2022-10-16T02:52:51;96975.44;;;12.84;82.79
70254;BME280;57649;42.968;1.608;2022-10-16T02:55:17;96978.31;;;12.83;82.84
70254;BME280;57649;42.968;1.608;2022-10-16T02:57:42;96979.19;;;12.90;82.22
70254;BME280;57649;42.968;1.608;2022-10-16T03:00:11;96980.91;;;12.98;81.65
70254;BME280;57649;42.968;1.608;2022-10-16T03:02:37;96980.19;;;13.10;80.84
70254;BME280;57649;42.968;1.608;2022-10-16T03:05:03;96989.69;;;13.13;80.28
70254;BME280;57649;42.968;1.608;2022-10-16T03:07:28;96992.38;;;13.13;79.95
70254;BME280;57649;42.968;1.608;2022-10-16T03:09:54;96995.06;;;13.13;79.12
70254;BME280;57649;42.968;1.608;2022-10-16T03:12:20;97008.59;;;13.20;79.61
70254;BME280;57649;42.968;1.608;2022-10-16T03:14:46;97008.84;;;13.25;79.11
70254;BME280;57649;42.968;1.608;2022-10-16T03:17:11;97015.28;;;13.02;79.60
70254;BME280;57649;42.968;1.608;2022-10-16T03:19:38;97007.69;;;12.48;82.33
70254;BME280;57649;42.968;1.608;2022-10-16T03:22:04;97005.34;;;12.38;82.65
70254;BME280;57649;42.968;1.608;2022-10-16T03:24:29;96993.41;;;12.62;81.86
70254;BME280;57649;42.968;1.608;2022-10-16T03:26:54;96994.66;;;12.66;81.70
70254;BME280;57649;42.968;1.608;2022-10-16T03:29:20;97005.09;;;12.76;81.38
70254;BME280;57649;42.968;1.608;2022-10-16T03:31:45;97003.44;;;12.75;81.42
70254;BME280;57649;42.968;1.608;2022-10-16T03:34:13;97007.44;;;12.43;83.12
70254;BME280;57649;42.968;1.608;2022-10-16T03:36:39;97000.72;;;12.54;82.39
70254;BME280;57649;42.968;1.608;2022-10-16T03:39:04;96999.13;;;12.59;82.37
70254;BME280;57649;42.968;1.608;2022-10-16T03:41:29;96995.81;;;12.57;82.43
70254;BME280;57649;42.968;1.608;2022-10-16T03:43:55;96997.91;;;12.62;82.19
70254;BME280;57649;42.968;1.608;2022-10-16T03:46:20;97003.28;;;12.62;82.47
70254;BME280;57649;42.968;1.608;2022-10-16T03:48:46;96996.59;;;12.51;82.66
70254;BME280;57649;42.968;1.608;2022-10-16T03:51:11;97000.81;;;12.60;82.46
70254;BME280;57649;42.968;1.608;2022-10-16T03:53:36;97012.38;;;12.61;82.00
70254;BME280;57649;42.968;1.608;2022-10-16T03:56:02;96999.97;;;12.60;81.70
70254;BME280;57649;42.968;1.608;2022-10-16T03:58:27;97012.78;;;12.79;81.20
70254;BME280;57649;42.968;1.608;2022-10-16T04:00:53;97007.84;;;12.83;80.92
70254;BME280;57649;42.968;1.608;2022-10-16T04:03:18;97021.84;;;12.78;81.21
70254;BME280;57649;42.968;1.608;2022-10-16T04:05:44;97014.78;;;12.56;81.84
70254;BME280;57649;42.968;1.608;2022-10-16T04:08:09;97029.84;;;12.35;82.95
70254;BME280;57649;42.968;1.608;2022-10-16T04:10:35;97027.03;;;12.22;83.57
70254;BME280;57649;42.968;1.608;2022-10-16T04:13:00;97024.16;;;12.08;84.61
70254;BME280;57649;42.968;1.608;2022-10-16T04:15:25;97029.16;;;12.11;84.59
70254;BME280;57649;42.968;1.608;2022-10-16T04:17:51;97032.78;;;12.04;84.46
70254;BME280;57649;42.968;1.608;2022-10-16T04:20:17;97022.50;;;12.07;84.27
70254;BME280;57649;42.968;1.608;2022-10-16T04:22:43;97017.19;;;12.14;84.38
70254;BME280;57649;42.968;1.608;2022-10-16T04:25:09;97023.13;;;12.24;83.96
70254;BME280;57649;42.968;1.608;2022-10-16T04:27:34;97016.63;;;12.33;83.66
70254;BME280;57649;42.968;1.608;2022-10-16T04:30:00;97005.78;;;12.27;84.35
70254;BME280;57649;42.968;1.608;2022-10-16T04:32:25;97021.63;;;12.37;83.76
70254;BME280;57649;42.968;1.608;2022-10-16T04:34:51;97016.06;;;12.38;83.29
70254;BME280;57649;42.968;1.608;2022-10-16T04:37:16;97023.34;;;12.44;82.98
70254;BME280;57649;42.968;1.608;2022-10-16T04:39:42;97022.22;;;12.54;82.62
70254;BME280;57649;42.968;1.608;2022-10-16T04:42:07;97024.41;;;12.65;82.42
70254;BME280;57649;42.968;1.608;2022-10-16T04:44:33;97023.16;;;12.67;81.40
70254;BME280;57649;42.968;1.608;2022-10-16T04:46:58;97033.50;;;12.64;81.17
70254;BME280;57649;42.968;1.608;2022-10-16T04:49:23;97031.72;;;12.56;81.48
70254;BME280;57649;42.968;1.608;2022-10-16T04:51:49;97039.78;;;12.56;80.97
70254;BME280;57649;42.968;1.608;2022-10-16T04:54:14;97037.97;;;12.57;81.41
70254;BME280;57649;42.968;1.608;2022-10-16T04:56:40;97042.88;;;12.53;81.41
70254;BME280;57649;42.968;1.608;2022-10-16T04:59:09;97043.78;;;12.60;81.49
70254;BME280;57649;42.968;1.608;2022-10-16T05:01:34;97040.38;;;12.51;81.76
70254;BME280;57649;42.968;1.608;2022-10-16T05:04:00;97054.16;;;12.48;81.93
70254;BME280;57649;42.968;1.608;2022-10-16T05:06:25;97053.88;;;12.43;82.35
70254;BME280;57649;42.968;1.608;2022-10-16T05:08:51;97056.47;;;12.51;82.31
70254;BME280;57649;42.968;1.608;2022-10-16T05:11:16;97058.13;;;12.52;82.16
70254;BME280;57649;42.968;1.608;2022-10-16T05:13:41;97068.69;;;12.54;82.37
70254;BME280;57649;42.968;1.608;2022-10-16T05:16:07;97065.72;;;12.64;82.15
70254;BME280;57649;42.968;1.608;2022-10-16T05:18:32;97069.94;;;12.73;81.41
70254;BME280;57649;42.968;1.608;2022-10-16T05:20:58;97066.72;;;12.63;81.70
70254;BME280;57649;42.968;1.608;2022-10-16T05:23:23;97062.44;;;12.68;81.27
70254;BME280;57649;42.968;1.608;2022-10-16T05:25:56;97077.34;;;12.71;81.34
70254;BME280;57649;42.968;1.608;2022-10-16T05:28:24;97078.91;;;12.80;80.17
70254;BME280;57649;42.968;1.608;2022-10-16T05:30:50;97067.91;;;12.75;80.06
70254;BME280;57649;42.968;1.608;2022-10-16T05:33:16;97073.56;;;12.65;81.31
70254;BME280;57649;42.968;1.608;2022-10-16T05:35:41;97070.88;;;12.65;81.52
70254;BME280;57649;42.968;1.608;2022-10-16T05:38:07;97062.31;;;12.55;82.42
70254;BME280;57649;42.968;1.608;2022-10-16T05:40:32;97069.25;;;12.49;83.27
70254;BME280;57649;42.968;1.608;2022-10-16T05:42:58;97063.16;;;12.41;83.09
70254;BME280;57649;42.968;1.608;2022-10-16T05:45:23;97065.09;;;12.47;82.49
70254;BME280;57649;42.968;1.608;2022-10-16T05:47:49;97062.22;;;12.48;82.00
70254;BME280;57649;42.968;1.608;2022-10-16T05:50:14;97061.72;;;12.60;81.56
70254;BME280;57649;42.968;1.608;2022-10-16T05:52:40;97065.03;;;12.62;81.26
70254;BME280;57649;42.968;1.608;2022-10-16T05:55:05;97053.63;;;12.75;80.17
70254;BME280;57649;42.968;1.608;2022-10-16T05:57:31;97054.41;;;12.90;80.16
70254;BME280;57649;42.968;1.608;2022-10-16T05:59:56;97054.75;;;12.80;80.45
70254;BME280;57649;42.968;1.608;2022-10-16T06:02:22;97056.88;;;12.70;80.69
70254;BME280;57649;42.968;1.608;2022-10-16T06:04:47;97065.44;;;12.59;80.70
70254;BME280;57649;42.968;1.608;2022-10-16T06:07:13;97063.59;;;12.59;81.15
70254;BME280;57649;42.968;1.608;2022-10-16T06:09:38;97065.50;;;12.65;80.59
70254;BME280;57649;42.968;1.608;2022-10-16T06:12:04;97069.28;;;12.71;80.47
70254;BME280;57649;42.968;1.608;2022-10-16T06:14:29;97067.28;;;12.58;80.83
70254;BME280;57649;42.968;1.608;2022-10-16T06:16:54;97073.81;;;12.70;81.02
70254;BME280;57649;42.968;1.608;2022-10-16T06:19:20;97077.84;;;12.60;81.31
70254;BME280;57649;42.968;1.608;2022-10-16T06:21:45;97076.31;;;12.72;81.04
70254;BME280;57649;42.968;1.608;2022-10-16T06:24:11;97079.88;;;12.58;81.52
70254;BME280;57649;42.968;1.608;2022-10-16T06:26:37;97086.25;;;12.71;81.01
70254;BME280;57649;42.968;1.608;2022-10-16T06:29:02;97090.22;;;12.76;80.96
70254;BME280;57649;42.968;1.608;2022-10-16T06:31:28;97091.31;;;12.81;80.85
70254;BME280;57649;42.968;1.608;2022-10-16T06:33:56;97089.53;;;12.88;80.73
70254;BME280;57649;42.968;1.608;2022-10-16T06:36:23;97091.94;;;12.83;80.64
70254;BME280;57649;42.968;1.608;2022-10-16T06:38:49;97103.22;;;12.94;80.14
70254;BME280;57649;42.968;1.608;2022-10-16T06:41:18;97105.41;;;13.05;79.60
70254;BME280;57649;42.968;1.608;2022-10-16T06:43:44;97102.78;;;13.12;79.33
70254;BME280;57649;42.968;1.608;2022-10-16T06:46:14;97104.13;;;13.22;78.33
70254;BME280;57649;42.968;1.608;2022-10-16T06:48:40;97098.81;;;13.29;78.72
70254;BME280;57649;42.968;1.608;2022-10-16T06:53:34;97110.16;;;13.46;78.08
70254;BME280;57649;42.968;1.608;2022-10-16T06:56:13;97105.28;;;13.56;77.60
70254;BME280;57649;42.968;1.608;2022-10-16T06:58:40;97115.50;;;13.67;77.05
70254;BME280;57649;42.968;1.608;2022-10-16T07:01:05;97111.53;;;13.85;77.06
70254;BME280;57649;42.968;1.608;2022-10-16T07:03:31;97109.16;;;13.75;77.84
70254;BME280;57649;42.968;1.608;2022-10-16T07:05:57;97105.38;;;13.70;78.34
70254;BME280;57649;42.968;1.608;2022-10-16T07:08:22;97114.34;;;13.77;78.00
70254;BME280;57649;42.968;1.608;2022-10-16T07:10:48;97109.41;;;13.80;77.85
70254;BME280;57649;42.968;1.608;2022-10-16T07:13:13;97119.00;;;13.90;78.48
70254;BME280;57649;42.968;1.608;2022-10-16T07:15:40;97121.97;;;14.01;78.26
70254;BME280;57649;42.968;1.608;2022-10-16T07:18:06;97125.31;;;14.03;77.73
70254;BME280;57649;42.968;1.608;2022-10-16T07:20:32;97120.16;;;14.09;78.02
70254;BME280;57649;42.968;1.608;2022-10-16T07:22:57;97131.63;;;14.24;78.58
70254;BME280;57649;42.968;1.608;2022-10-16T07:25:23;97125.06;;;14.33;77.61
70254;BME280;57649;42.968;1.608;2022-10-16T07:27:48;97136.50;;;14.42;77.29
70254;BME280;57649;42.968;1.608;2022-10-16T07:30:14;97133.84;;;14.49;77.18
70254;BME280;57649;42.968;1.608;2022-10-16T07:32:39;97132.44;;;14.53;76.97
70254;BME280;57649;42.968;1.608;2022-10-16T07:35:05;97139.78;;;14.72;77.06
70254;BME280;57649;42.968;1.608;2022-10-16T07:37:30;97136.38;;;14.57;77.83
70254;BME280;57649;42.968;1.608;2022-10-16T07:39:56;97135.59;;;14.63;77.12
70254;BME280;57649;42.968;1.608;2022-10-16T07:42:21;97142.91;;;14.69;77.63
70254;BME280;57649;42.968;1.608;2022-10-16T07:44:47;97139.19;;;14.77;76.45
70254;BME280;57649;42.968;1.608;2022-10-16T07:47:12;97147.88;;;14.72;76.69
70254;BME280;57649;42.968;1.608;2022-10-16T07:49:37;97146.84;;;14.73;76.90
70254;BME280;57649;42.968;1.608;2022-10-16T07:52:03;97148.91;;;14.71;77.63
70254;BME280;57649;42.968;1.608;2022-10-16T07:54:28;97146.03;;;14.73;77.55
70254;BME280;57649;42.968;1.608;2022-10-16T07:56:54;97152.88;;;14.75;76.55
70254;BME280;57649;42.968;1.608;2022-10-16T07:59:19;97148.50;;;14.74;77.00
70254;BME280;57649;42.968;1.608;2022-10-16T08:01:45;97158.50;;;14.87;76.90
70254;BME280;57649;42.968;1.608;2022-10-16T08:04:10;97159.34;;;14.88;76.82
70254;BME280;57649;42.968;1.608;2022-10-16T08:06:37;97166.00;;;14.92;76.21
70254;BME280;57649;42.968;1.608;2022-10-16T08:09:04;97160.25;;;15.08;74.74
70254;BME280;57649;42.968;1.608;2022-10-16T08:11:29;97163.09;;;15.00;75.23
70254;BME280;57649;42.968;1.608;2022-10-16T08:13:54;97157.75;;;15.07;75.25
70254;BME280;57649;42.968;1.608;2022-10-16T08:16:20;97159.16;;;14.96;76.24
70254;BME280;57649;42.968;1.608;2022-10-16T08:18:46;97156.88;;;14.99;75.97
70254;BME280;57649;42.968;1.608;2022-10-16T08:21:16;97157.72;;;15.00;76.47
70254;BME280;57649;42.968;1.608;2022-10-16T08:23:42;97145.09;;;15.00;77.01
70254;BME280;57649;42.968;1.608;2022-10-16T08:26:08;97158.97;;;14.97;77.73
70254;BME280;57649;42.968;1.608;2022-10-16T08:28:34;97152.78;;;15.10;76.44
70254;BME280;57649;42.968;1.608;2022-10-16T08:31:07;97159.63;;;15.13;76.14
70254;BME280;57649;42.968;1.608;2022-10-16T08:33:33;97165.03;;;15.19;75.19
70254;BME280;57649;42.968;1.608;2022-10-16T08:36:00;97165.88;;;15.27;74.71
70254;BME280;57649;42.968;1.608;2022-10-16T08:38:26;97168.81;;;15.38;75.50
70254;BME280;57649;42.968;1.608;2022-10-16T08:40:52;97164.66;;;15.36;75.25
70254;BME280;57649;42.968;1.608;2022-10-16T08:43:24;97173.19;;;15.39;74.79
70254;BME280;57649;42.968;1.608;2022-10-16T08:51:08;97171.19;;;16.08;73.55
70254;BME280;57649;42.968;1.608;2022-10-16T08:53:42;97172.22;;;16.34;73.18
70254;BME280;57649;42.968;1.608;2022-10-16T08:58:35;97177.22;;;17.02;71.21
70254;BME280;57649;42.968;1.608;2022-10-16T09:01:14;97164.09;;;17.44;69.84
70254;BME280;57649;42.968;1.608;2022-10-16T09:03:48;97163.25;;;18.07;68.00
70254;BME280;57649;42.968;1.608;2022-10-16T09:06:37;97165.44;;;18.79;64.41
70254;BME280;57649;42.968;1.608;2022-10-16T09:12:03;97160.34;;;19.38;62.44
70254;BME280;57649;42.968;1.608;2022-10-16T09:14:56;97152.88;;;19.64;62.15
70254;BME280;57649;42.968;1.608;2022-10-16T09:22:39;97145.06;;;20.45;62.39
70254;BME280;57649;42.968;1.608;2022-10-16T09:25:13;97145.69;;;21.00;61.25
70254;BME280;57649;42.968;1.608;2022-10-16T09:27:40;97140.94;;;21.07;61.74
70254;BME280;57649;42.968;1.608;2022-10-16T09:30:14;97141.53;;;21.38;61.37
70254;BME280;57649;42.968;1.608;2022-10-16T09:32:40;97133.59;;;21.65;61.35
70254;BME280;57649;42.968;1.608;2022-10-16T09:35:14;97143.44;;;21.83;61.10
70254;BME280;57649;42.968;1.608;2022-10-16T09:37:40;97132.81;;;21.98;60.96
70254;BME280;57649;42.968;1.608;2022-10-16T09:40:12;97137.50;;;22.20;60.76
70254;BME280;57649;42.968;1.608;2022-10-16T09:42:38;97132.53;;;22.51;59.61
70254;BME280;57649;42.968;1.608;2022-10-16T09:45:05;97127.47;;;22.81;58.13
70254;BME280;57649;42.968;1.608;2022-10-16T09:47:31;97126.78;;;23.13;57.95
70254;BME280;57649;42.968;1.608;2022-10-16T09:50:05;97135.44;;;23.27;58.44
70254;BME280;57649;42.968;1.608;2022-10-16T09:52:32;97134.94;;;23.57;58.12
70254;BME280;57649;42.968;1.608;2022-10-16T09:55:00;97125.38;;;23.60;57.36
70254;BME280;57649;42.968;1.608;2022-10-16T09:57:27;97125.25;;;23.77;55.97
70254;BME280;57649;42.968;1.608;2022-10-16T09:59:55;97126.44;;;23.59;54.38
70254;BME280;57649;42.968;1.608;2022-10-16T10:02:34;97112.75;;;23.81;54.38
70254;BME280;57649;42.968;1.608;2022-10-16T10:05:01;97123.22;;;23.62;57.48
70254;BME280;57649;42.968;1.608;2022-10-16T10:07:42;97125.06;;;23.56;59.11
70254;BME280;57649;42.968;1.608;2022-10-16T10:10:21;97123.09;;;23.52;59.60
70254;BME280;57649;42.968;1.608;2022-10-16T10:12:47;97119.19;;;23.70;59.52
70254;BME280;57649;42.968;1.608;2022-10-16T10:15:13;97110.34;;;23.57;59.30
70254;BME280;57649;42.968;1.608;2022-10-16T10:17:50;97114.19;;;23.61;59.37
70254;BME280;57649;42.968;1.608;2022-10-16T10:22:54;97095.47;;;24.08;58.26
70254;BME280;57649;42.968;1.608;2022-10-16T10:36:00;97113.59;;;24.19;58.23
70254;BME280;57649;42.968;1.608;2022-10-16T10:47:17;97096.09;;;24.20;57.62
70254;BME280;57649;42.968;1.608;2022-10-16T10:55:00;97096.00;;;24.47;57.05
70254;BME280;57649;42.968;1.608;2022-10-16T10:57:46;97103.34;;;24.41;57.93
70254;BME280;57649;42.968;1.608;2022-10-16T11:05:59;97101.84;;;24.61;57.25
70254;BME280;57649;42.968;1.608;2022-10-16T11:08:40;97100.19;;;24.55;57.68
70254;BME280;57649;42.968;1.608;2022-10-16T11:11:24;97102.09;;;24.59;57.31
70254;BME280;57649;42.968;1.608;2022-10-16T11:16:46;97102.91;;;24.55;57.02
70254;BME280;57649;42.968;1.608;2022-10-16T11:22:15;97097.63;;;24.48;58.12
70254;BME280;57649;42.968;1.608;2022-10-16T11:25:13;97089.84;;;24.72;57.02
70254;BME280;57649;42.968;1.608;2022-10-16T11:30:24;97084.69;;;24.81;57.17
70254;BME280;57649;42.968;1.608;2022-10-16T11:38:32;97074.81;;;24.32;57.96
70254;BME280;57649;42.968;1.608;2022-10-16T11:41:22;97077.41;;;24.49;58.06
70254;BME280;57649;42.968;1.608;2022-10-16T11:44:18;97064.53;;;24.50;57.54
70254;BME280;57649;42.968;1.608;2022-10-16T11:46:44;97055.25;;;24.51;57.86
70254;BME280;57649;42.968;1.608;2022-10-16T11:49:15;97066.50;;;24.12;58.16
70254;BME280;57649;42.968;1.608;2022-10-16T11:51:56;97068.22;;;24.23;58.37
70254;BME280;57649;42.968;1.608;2022-10-16T11:54:30;97056.97;;;24.19;58.30
70254;BME280;57649;42.968;1.608;2022-10-16T11:57:01;97052.94;;;24.32;57.67
70254;BME280;57649;42.968;1.608;2022-10-16T11:59:30;97044.91;;;24.53;57.19
70254;BME280;57649;42.968;1.608;2022-10-16T12:07:14;97048.03;;;24.29;57.73
70254;BME280;57649;42.968;1.608;2022-10-16T12:09:43;97034.53;;;24.12;58.47
70254;BME280;57649;42.968;1.608;2022-10-16T12:12:37;97026.72;;;24.41;57.64
70254;BME280;57649;42.968;1.608;2022-10-16T12:17:47;97029.34;;;24.16;58.06
70254;BME280;57649;42.968;1.608;2022-10-16T12:22:46;97037.91;;;24.30;57.92
70254;BME280;57649;42.968;1.608;2022-10-16T12:25:39;97031.81;;;24.12;57.82
70254;BME280;57649;42.968;1.608;2022-10-16T12:30:41;97027.06;;;24.02;57.69
70254;BME280;57649;42.968;1.608;2022-10-16T12:33:28;97018.53;;;24.41;56.97
70254;BME280;57649;42.968;1.608;2022-10-16T12:35:54;97012.50;;;24.34;57.09
70254;BME280;57649;42.968;1.608;2022-10-16T12:41:06;97010.22;;;24.21;57.59
70254;BME280;57649;42.968;1.608;2022-10-16T12:43:40;97015.50;;;24.33;57.17
70254;BME280;57649;42.968;1.608;2022-10-16T12:48:35;97017.44;;;23.90;58.59
70254;BME280;57649;42.968;1.608;2022-10-16T12:51:22;97005.81;;;24.15;58.46
70254;BME280;57649;42.968;1.608;2022-10-16T12:54:22;97001.16;;;24.15;57.97
70254;BME280;57649;42.968;1.608;2022-10-16T13:00:03;97003.16;;;24.30;57.68
70254;BME280;57649;42.968;1.608;2022-10-16T13:02:46;97000.44;;;24.35;57.70
70254;BME280;57649;42.968;1.608;2022-10-16T13:08:11;97008.53;;;24.10;59.08
70254;BME280;57649;42.968;1.608;2022-10-16T13:11:20;97019.91;;;23.91;58.89
70254;BME280;57649;42.968;1.608;2022-10-16T13:27:50;97027.25;;;23.86;59.01
70254;BME280;57649;42.968;1.608;2022-10-16T13:30:20;97027.13;;;24.08;58.88
70254;BME280;57649;42.968;1.608;2022-10-16T13:32:55;97015.69;;;24.21;58.36
70254;BME280;57649;42.968;1.608;2022-10-16T13:35:29;97034.38;;;24.34;58.03
70254;BME280;57649;42.968;1.608;2022-10-16T13:38:19;97029.91;;;24.18;58.84
70254;BME280;57649;42.968;1.608;2022-10-16T13:40:50;97027.75;;;24.20;58.18
70254;BME280;57649;42.968;1.608;2022-10-16T13:43:18;97025.44;;;24.07;59.37
70254;BME280;57649;42.968;1.608;2022-10-16T13:46:02;97036.97;;;24.09;58.63
70254;BME280;57649;42.968;1.608;2022-10-16T13:48:29;97025.00;;;24.20;58.56
70254;BME280;57649;42.968;1.608;2022-10-16T13:51:03;97023.88;;;24.16;58.90
70254;BME280;57649;42.968;1.608;2022-10-16T13:53:34;97035.69;;;24.21;58.62
70254;BME280;57649;42.968;1.608;2022-10-16T13:56:00;97037.19;;;24.02;58.64
70254;BME280;57649;42.968;1.608;2022-10-16T13:58:26;97038.66;;;24.15;58.01
70254;BME280;57649;42.968;1.608;2022-10-16T14:01:03;97034.38;;;24.34;58.06
70254;BME280;57649;42.968;1.608;2022-10-16T14:03:31;97034.25;;;24.14;58.24
70254;BME280;57649;42.968;1.608;2022-10-16T14:06:00;97036.28;;;24.34;57.78
70254;BME280;57649;42.968;1.608;2022-10-16T14:08:27;97043.03;;;24.21;58.07
70254;BME280;57649;42.968;1.608;2022-10-16T14:10:56;97038.91;;;24.13;57.98
70254;BME280;57649;42.968;1.608;2022-10-16T14:13:36;97032.63;;;24.13;58.28
70254;BME280;57649;42.968;1.608;2022-10-16T14:16:07;97036.78;;;24.26;58.12
70254;BME280;57649;42.968;1.608;2022-10-16T14:18:34;97032.06;;;24.16;58.43
70254;BME280;57649;42.968;1.608;2022-10-16T14:21:05;97029.09;;;24.23;58.21
70254;BME280;57649;42.968;1.608;2022-10-16T14:23:40;97043.56;;;24.13;58.74
70254;BME280;57649;42.968;1.608;2022-10-16T14:26:17;97047.84;;;23.98;59.11
70254;BME280;57649;42.968;1.608;2022-10-16T14:28:45;97049.41;;;23.89;59.64
70254;BME280;57649;42.968;1.608;2022-10-16T14:31:31;97061.72;;;23.92;59.51
70254;BME280;57649;42.968;1.608;2022-10-16T14:33:58;97058.97;;;23.92;59.72
70254;BME280;57649;42.968;1.608;2022-10-16T14:36:25;97054.06;;;23.94;59.43
70254;BME280;57649;42.968;1.608;2022-10-16T14:41:21;97056.69;;;24.16;59.49
70254;BME280;57649;42.968;1.608;2022-10-16T14:43:52;97049.59;;;24.15;59.31
70254;BME280;57649;42.968;1.608;2022-10-16T14:46:22;97056.19;;;24.24;59.27
70254;BME280;57649;42.968;1.608;2022-10-16T14:48:53;97058.13;;;24.29;58.67
70254;BME280;57649;42.968;1.608;2022-10-16T14:51:22;97055.25;;;24.51;58.36
70254;BME280;57649;42.968;1.608;2022-10-16T14:53:49;97057.31;;;24.28;58.90
70254;BME280;57649;42.968;1.608;2022-10-16T14:56:23;97057.66;;;24.42;58.44
70254;BME280;57649;42.968;1.608;2022-10-16T14:58:52;97060.00;;;24.66;58.40
70254;BME280;57649;42.968;1.608;2022-10-16T15:01:18;97066.50;;;24.54;58.10
70254;BME280;57649;42.968;1.608;2022-10-16T15:03:44;97052.22;;;24.47;58.37
70254;BME280;57649;42.968;1.608;2022-10-16T15:06:14;97068.66;;;24.47;59.03
70254;BME280;57649;42.968;1.608;2022-10-16T15:08:41;97069.44;;;24.43;59.27
70254;BME280;57649;42.968;1.608;2022-10-16T15:11:14;97066.28;;;24.18;59.79
70254;BME280;57649;42.968;1.608;2022-10-16T15:13:41;97064.19;;;24.36;59.17